• Join FlightAware (Why Join?)
  • Login
  • US Flag 
06:32AM EDT


 

Airport Tracker/Info


-or-


 

Live Flight TrackerFlight Track Log ✈ AWE1092 ✈ 20-Mar-2014 ✈ KDFW - KPHL

Flight Track Log - Related Links

Times and Time Zones

All times are in EDT time to prevent confusion due to time zone crossing. See the AWE1092 flight status page for this flight to view local times or setup timezone preferences in your user account.

Time Position Orientation Groundspeed Altitude Reporting Facility
EDT Latitude Longitude Course Direction KTS MPH feet Rate Location/Type
06:15PM 32.8833 -97.0167 64° Northeast 175 201 1,000  Level Dallas / Fort Worth TRACON
06:17PM 32.8047 -97.0022 171° South 203 234 4,000 1,920 Climbing Fort Worth Center
06:18PM 32.8008 -96.7143 68° East  Level FlightAware Approximate
06:18PM 32.7686 -96.9375 124° Southeast 267 307 6,000  Level Fort Worth Center
06:19PM 32.8538 -96.5851 62° Northeast  Level FlightAware Approximate
06:19PM 32.7706 -96.8364 89° East 292 336 8,700  Level Fort Worth Center
06:20PM 32.9103 -96.4576 64° Northeast  Level FlightAware Approximate
06:20PM 32.8047 -96.7472 65° Northeast 296 341 10,600  Level Fort Worth Center
06:21PM 32.9623 -96.3275 64° Northeast  Level FlightAware Approximate
06:21PM 32.8472 -96.6386 65° Northeast 342 394 11,900  Level Fort Worth Center
06:22PM 32.8964 -96.5183 64° Northeast 378 435 14,500 2,340 Climbing Fort Worth Center
06:23PM 32.9417 -96.4042 65° Northeast 382 440 16,800 2,160 Climbing Fort Worth Center
06:24PM 32.9803 -96.2700 71° East 399 459 19,000 1,740 Climbing Fort Worth Center
06:25PM 32.9969 -96.1319 82° East 417 480 20,500 1,500 Climbing Fort Worth Center
06:26PM 33.0186 -95.9786 80° East 435 501 22,100 1,440 Climbing Fort Worth Center
06:27PM 33.0389 -95.8314 81° East 451 519 23,500 1,200 Climbing Fort Worth Center
06:28PM 33.0586 -95.6839 81° East 463 533 24,700 1,260 Climbing Fort Worth Center
06:29PM 33.0828 -95.5336 79° East 473 544 26,200 1,200 Climbing Fort Worth Center
06:30PM 33.1294 -95.3853 69° East 476 548 27,200 1,140 Climbing Fort Worth Center
06:31PM 33.1828 -95.2022 71° East 487 560 28,600 1,200 Climbing Fort Worth Center
06:32PM 33.2303 -95.0467 70° East 495 570 29,800 1,020 Climbing Fort Worth Center
06:33PM 33.2747 -94.8919 71° East 496 571 30,800 960 Climbing Fort Worth Center
06:34PM 33.3211 -94.7369 70° East 496 571 31,900 960 Climbing Fort Worth Center
06:35PM 33.3656 -94.5850 71° East 488 562 32,800 480 Climbing Fort Worth Center
06:37PM 33.4108 -94.4331 70° East 487 560 33,000 60 Climbing Fort Worth Center
06:38PM 33.4550 -94.2786 71° East 487 560 33,000  Level Fort Worth Center
06:39PM 33.5100 -94.0925 70° East 487 560 33,000  Level Fort Worth Center
06:40PM 33.5672 -93.9403 66° East 489 563 33,000  Level Fort Worth Center
06:41PM 33.6253 -93.7908 65° Northeast 489 563 33,000  Level Fort Worth Center
06:42PM 33.6811 -93.6419 66° East 489 563 33,000  Level Fort Worth Center
06:42PM 33.7147 -93.5539 65° Northeast 488 562 33,000  Level Memphis Center
06:43PM 33.7711 -93.4056 65° Northeast 488 562 33,000  Level Memphis Center
06:44PM 33.8281 -93.2589 65° Northeast 487 560 33,000  Level Memphis Center
06:45PM 33.8839 -93.1114 65° Northeast 486 559 33,000  Level Memphis Center
06:46PM 33.9506 -92.9336 66° East 486 559 33,000  Level Memphis Center
06:47PM 34.0064 -92.7869 65° Northeast 486 559 33,000  Level Memphis Center
06:48PM 34.0608 -92.6392 66° East 485 558 33,000  Level Memphis Center
06:50PM 34.1217 -92.4786 65° Northeast 484 557 33,000  Level Memphis Center
06:51PM 34.1756 -92.3336 66° East 480 552 33,000  Level Memphis Center
06:52PM 34.2283 -92.1886 66° East 478 550 33,000  Level Memphis Center
06:53PM 34.2814 -92.0453 66° East 471 542 33,000  Level Memphis Center
06:54PM 34.3350 -91.8997 66° East 472 543 33,000  Level Memphis Center
06:55PM 34.3983 -91.7261 66° East 472 543 33,000  Level Memphis Center
06:56PM 34.4517 -91.5769 67° East 472 543 33,000  Level Memphis Center
06:57PM 34.5039 -91.4314 66° East 472 543 33,000  Level Memphis Center
06:58PM 34.5569 -91.2844 66° East 473 544 33,000  Level Memphis Center
06:59PM 34.6097 -91.1369 66° East 473 544 33,000  Level Memphis Center
07:00PM 34.6631 -90.9886 66° East 474 545 33,000  Level Memphis Center
07:01PM 34.7147 -90.8411 67° East 475 547 33,000  Level Memphis Center
07:02PM 34.7792 -90.6625 66° East 478 550 33,000  Level Memphis Center
07:03PM 34.8308 -90.5142 67° East 478 550 33,000  Level Memphis Center
07:04PM 34.8836 -90.3628 67° East 478 550 33,000  Level Memphis Center
07:05PM 34.9369 -90.2131 66° East 479 551 33,000  Level Memphis Center
07:06PM 34.9892 -90.0622 67° East 479 551 33,000  Level Memphis Center
07:07PM 35.0417 -89.9100 67° East 479 551 33,000  Level Memphis Center
07:08PM 35.0958 -89.7583 66° East 479 551 33,000  Level Memphis Center
07:09PM 35.1597 -89.5783 66° East 479 551 33,000  Level Memphis Center
07:10PM 35.2119 -89.4283 67° East 479 551 33,000  Level Memphis Center
07:11PM 35.2644 -89.2786 67° East 479 551 33,000  Level Memphis Center
07:12PM 35.3175 -89.1300 66° East 478 550 33,000  Level Memphis Center
07:13PM 35.3697 -88.9797 67° East 478 550 33,000  Level Memphis Center
07:14PM 35.4225 -88.8289 67° East 479 551 33,000  Level Memphis Center
07:15PM 35.4808 -88.6600 67° East 481 554 33,000  Level Memphis Center
07:16PM 35.5339 -88.5083 67° East 482 555 33,000  Level Memphis Center
07:17PM 35.5850 -88.3569 67° East 482 555 33,000  Level Memphis Center
07:18PM 35.6369 -88.2031 67° East 482 555 33,000  Level Memphis Center
07:20PM 35.6975 -88.0214 68° East 482 555 33,000  Level Memphis Center
07:21PM 35.7483 -87.8675 68° East 482 555 33,000  Level Memphis Center
07:22PM 35.7994 -87.7153 67° East 482 555 33,000  Level Memphis Center
07:23PM 35.8508 -87.5644 67° East 476 548 33,000  Level Memphis Center
07:24PM 35.9000 -87.4128 68° East 476 548 33,000  Level Memphis Center
07:25PM 35.9494 -87.2611 68° East 476 548 33,000  Level Memphis Center
07:26PM 36.0075 -87.0839 68° East 476 548 33,000  Level Memphis Center
07:27PM 36.0561 -86.9328 68° East 475 547 33,000  Level Memphis Center
07:28PM 36.1044 -86.7819 68° East 475 547 33,000  Level Memphis Center
07:29PM 36.1533 -86.6319 68° East 475 547 33,000  Level Memphis Center
07:30PM 36.2028 -86.4797 68° East 475 547 33,000  Level Memphis Center
07:31PM 36.2594 -86.3039 68° East 474 545 33,000  Level Memphis Center
07:32PM 36.3092 -86.1533 68° East 471 542 33,000  Level Memphis Center
07:33PM 36.3564 -86.0011 69° East 471 542 33,000  Level Memphis Center
07:34PM 36.4056 -85.8481 68° East 471 542 33,000  Level Memphis Center
07:35PM 36.4522 -85.7028 68° East 471 542 33,000  Level Memphis Center
07:36PM 36.5103 -85.5181 69° East 473 544 33,000  Level Memphis Center
07:37PM 36.5589 -85.3622 69° East 477 549 33,000  Level Memphis Center
07:38PM 36.6061 -85.2053 69° East 478 550 33,000  Level Memphis Center
07:39PM 36.6553 -85.0475 69° East 483 556 33,000  Level Memphis Center
07:41PM 36.7236 -84.8264 69° East 483 556 33,000  Level Indianapolis Center
07:42PM 36.7714 -84.6672 69° East 485 558 33,000  Level Indianapolis Center
07:43PM 36.8194 -84.5072 69° East 487 560 33,000  Level Indianapolis Center
07:44PM 36.8736 -84.3283 69° East 489 563 33,000  Level Indianapolis Center
07:45PM 36.9231 -84.1661 69° East 493 567 33,000  Level Indianapolis Center
07:46PM 36.9711 -84.0031 70° East 495 570 33,000  Level Indianapolis Center
07:47PM 37.0183 -83.8403 70° East 495 570 33,000  Level Indianapolis Center
07:48PM 37.0661 -83.6781 70° East 495 570 33,000  Level Indianapolis Center
07:49PM 37.1142 -83.5147 70° East 495 570 33,000  Level Indianapolis Center
07:50PM 37.1703 -83.3228 70° East 496 571 33,000  Level Indianapolis Center
07:51PM 37.2175 -83.1558 70° East 498 573 33,000  Level Indianapolis Center
07:52PM 37.2656 -82.9889 70° East 499 574 33,000  Level Indianapolis Center
07:53PM 37.3142 -82.8203 70° East 503 579 33,000  Level Indianapolis Center
07:54PM 37.3619 -82.6517 70° East 505 581 33,000  Level Indianapolis Center
07:55PM 37.4097 -82.4814 70° East 507 583 33,000  Level Indianapolis Center
07:56PM 37.4578 -82.3114 70° East 511 588 33,000  Level Indianapolis Center
07:57PM 37.5039 -82.1417 71° East 511 588 33,000  Level Indianapolis Center
07:58PM 37.5583 -81.9447 71° East 511 588 33,000  Level Indianapolis Center
07:59PM 37.6050 -81.7758 71° East 511 588 33,000  Level Indianapolis Center
08:00PM 37.6506 -81.6086 71° East 509 586 33,000  Level Indianapolis Center
08:01PM 37.6986 -81.4311 71° East 509 586 33,000  Level Indianapolis Center
08:02PM 37.7419 -81.2656 72° East 509 586 33,000  Level Indianapolis Center
08:03PM 37.7819 -81.0989 73° East 509 586 33,000  Level Indianapolis Center
08:04PM 37.7953 -80.8878 85° East 515 593 33,000  Level Indianapolis Center
08:05PM 37.8058 -80.7111 86° East 515 593 33,000  Level Indianapolis Center
08:06PM 37.8200 -80.5081 85° East 510 587 33,000  Level Washington Center
08:07PM 37.8317 -80.3272 85° East 515 593 33,000  Level Washington Center
08:08PM 37.8428 -80.1464 85° East 515 593 33,000  Level Washington Center
08:09PM 37.8536 -79.9683 86° East 515 593 33,000  Level Washington Center
08:10PM 37.8644 -79.7847 86° East 515 593 33,000  Level Washington Center
08:11PM 37.8761 -79.6250 85° East 515 593 33,100  Climbing Washington Center
08:12PM 37.8864 -79.4411 86° East 515 593 33,000 -60 Descending Washington Center
08:13PM 37.8961 -79.2603 86° East 515 593 33,000  Level Washington Center
08:14PM 37.9078 -79.0792 85° East 515 593 33,000  Level Washington Center
08:15PM 37.9294 -78.9011 81° East 515 593 33,000  Level Washington Center
08:16PM 37.9511 -78.7228 81° East 520 598 33,000 -60 Level Washington Center
08:17PM 37.9747 -78.5236 81° East 520 598 32,900  Descending Washington Center
08:18PM 37.9958 -78.3453 81° East 507 583 33,000  Climbing Washington Center
08:19PM 38.0119 -78.1800 83° East 521 600 33,000 -60 Level Washington Center
08:20PM 38.0778 -78.0264 61° Northeast 501 577 32,900 -540 Descending Washington Center
08:21PM 38.1622 -77.8603 57° Northeast 493 567 32,000 -840 Descending Washington Center
08:22PM 38.2294 -77.7222 58° Northeast 508 585 31,300 -840 Descending Washington Center
08:23PM 38.3136 -77.5553 57° Northeast 508 585 30,400 -960 Descending Washington Center
08:24PM 38.3806 -77.4139 59° Northeast 513 590 29,400 -1,200 Descending Washington Center
08:25PM 38.4536 -77.2594 59° Northeast 507 583 28,000 -1,380 Descending Washington Center
08:26PM 38.5264 -77.1097 58° Northeast 507 583 26,700 -1,320 Descending Washington Center
08:27PM 38.5992 -76.9597 58° Northeast 501 577 25,400 -1,320 Descending Washington Center
08:28PM 38.6694 -76.8175 58° Northeast 489 563 24,200 -1,500 Descending Washington Center
08:29PM 38.7231 -76.6639 66° East 473 544 22,500 -1,920 Descending Washington Center
08:30PM 38.7536 -76.5047 76° East 463 533 20,500 -2,100 Descending Washington Center
08:31PM 38.7881 -76.3508 74° East 450 518 18,300 -1,380 Descending Washington Center
08:34PM 38.8817 -75.9036 14° North 423 487 15,000 -900 Descending Washington Center
08:35PM 38.9381 -75.7892 58° Northeast 379 436 14,800 -1,560 Descending Washington Center
08:37PM 39.1333 -75.6667 26° Northeast 342 394 10,500 -1,620 Descending Philadelphia TRACON
08:38PM 39.2167 -75.6667 360° North 294 338 10,000 -300 Descending Philadelphia TRACON
08:39PM 39.3000 -75.6500 North 295 339 10,000 -600 Level Philadelphia TRACON
08:40PM 39.3900 -75.5487 North  Level FlightAware Approximate
08:40PM 39.3667 -75.5667 44° Northeast 302 348 8,800  Level Philadelphia TRACON
08:41PM 39.5120 -75.5182 14° North  Level FlightAware Approximate
08:41PM 39.4167 -75.4833 52° Northeast 296 341 7,100  Level Philadelphia TRACON
08:42PM 39.4667 -75.4167 46° Northeast 299 344 6,300 -1,080 Descending Philadelphia TRACON
08:43PM 39.5333 -75.3500 38° Northeast 289 333 5,100 -660 Descending Philadelphia TRACON
08:44PM 39.5833 -75.2667 52° Northeast 286 329 5,000 -540 Descending Philadelphia TRACON
08:45PM 39.6500 -75.2000 38° Northeast 285 328 4,000 -540 Descending Philadelphia TRACON
08:46PM 39.7000 -75.1333 46° Northeast 276 318 4,000  Level Philadelphia TRACON
08:47PM 39.7500 -75.0500 52° Northeast 279 321 4,000 -360 Level Philadelphia TRACON
08:48PM 39.8000 -75.0167 27° Northeast 234 269 3,300 -660 Descending Philadelphia TRACON
08:49PM 39.8667 -75.0333 349° North 182 209 2,800 -540 Descending Philadelphia TRACON
08:50PM 39.8833 -75.0833 293° West 153 176 2,300 -720 Descending Philadelphia TRACON
08:51PM 39.9000 -75.1333 293° West 151 174 1,400 -840 Descending Philadelphia TRACON
08:52PM 39.8833 -75.1833 247° West 123 142 700 -720 Descending Philadelphia TRACON